createdAt,value
2023-04-19T00:02:21.968Z,4.57
2023-04-19T00:04:49.299Z,4.80
2023-04-19T00:07:17.117Z,4.68
2023-04-19T00:09:44.170Z,4.75
2023-04-19T00:12:10.921Z,5.13
2023-04-19T00:14:37.676Z,4.93
2023-04-19T00:17:04.581Z,4.57
2023-04-19T00:19:32.890Z,5.03
2023-04-19T00:21:59.602Z,4.72
2023-04-19T00:24:26.374Z,5.40
2023-04-19T00:26:53.162Z,4.97
2023-04-19T00:29:19.947Z,5.03
2023-04-19T00:31:46.755Z,5.22
2023-04-19T00:34:14.006Z,5.25
2023-04-19T00:36:40.956Z,5.07
2023-04-19T00:39:07.854Z,5.43
2023-04-19T00:41:34.661Z,4.57
2023-04-19T00:44:01.445Z,4.90
2023-04-19T00:46:28.481Z,5.32
2023-04-19T00:48:55.741Z,5.70
2023-04-19T00:51:22.889Z,5.72
2023-04-19T00:53:52.418Z,5.13
2023-04-19T00:56:22.535Z,5.05
2023-04-19T00:58:49.714Z,5.40
2023-04-19T01:01:16.875Z,5.20
2023-04-19T01:03:44.690Z,4.97
2023-04-19T01:06:11.893Z,5.07
2023-04-19T01:08:40.120Z,4.60
2023-04-19T01:11:08.129Z,5.40
2023-04-19T01:13:34.908Z,5.30
2023-04-19T01:16:01.848Z,5.32
2023-04-19T01:18:32.911Z,5.47
2023-04-19T01:20:59.775Z,5.93
2023-04-19T01:23:26.460Z,5.57
2023-04-19T01:25:53.221Z,5.40
2023-04-19T01:28:20.022Z,5.70
2023-04-19T01:30:46.779Z,5.13
2023-04-19T01:33:13.462Z,6.40
2023-04-19T01:35:40.201Z,5.63
2023-04-19T01:38:06.950Z,5.90
2023-04-19T01:40:33.843Z,6.17
2023-04-19T01:43:00.615Z,6.07
2023-04-19T01:45:30.104Z,4.95
2023-04-19T01:47:57.009Z,6.23
2023-04-19T01:50:24.104Z,6.05
2023-04-19T01:52:50.853Z,6.32
2023-04-19T01:55:17.810Z,6.53
2023-04-19T01:57:44.977Z,6.05
2023-04-19T02:00:13.774Z,6.47
2023-04-19T02:02:41.243Z,6.03
2023-04-19T02:05:08.844Z,5.75
2023-04-19T02:07:35.624Z,5.55
2023-04-19T02:10:02.769Z,6.35
2023-04-19T02:12:36.055Z,6.68
2023-04-19T02:15:03.644Z,6.83
2023-04-19T02:17:30.608Z,5.63
2023-04-19T02:19:57.394Z,5.95
2023-04-19T02:22:24.234Z,5.82
2023-04-19T02:24:52.463Z,5.68
2023-04-19T02:27:19.165Z,6.10
2023-04-19T02:29:46.512Z,6.80
2023-04-19T02:32:13.696Z,6.00
2023-04-19T02:34:40.558Z,6.30
2023-04-19T02:37:07.329Z,5.77
2023-04-19T02:39:34.339Z,6.30
2023-04-19T02:42:01.335Z,6.43
2023-04-19T02:44:28.162Z,6.22
2023-04-19T02:46:55.257Z,6.80
2023-04-19T02:49:22.046Z,5.88
2023-04-19T02:51:52.694Z,6.05
2023-04-19T02:54:21.541Z,6.25
2023-04-19T02:56:48.269Z,6.63
2023-04-19T02:59:14.968Z,5.88
2023-04-19T03:01:41.798Z,6.03
2023-04-19T03:04:08.681Z,6.10
2023-04-19T03:06:36.332Z,6.57
2023-04-19T03:09:03.192Z,6.43
2023-04-19T03:11:29.995Z,5.93
2023-04-19T03:13:58.264Z,6.27
2023-04-19T03:16:24.992Z,5.70
2023-04-19T03:18:52.990Z,5.85
2023-04-19T03:21:19.886Z,5.88
2023-04-19T03:23:46.664Z,6.13
2023-04-19T03:26:13.439Z,5.75
2023-04-19T03:28:40.251Z,5.72
2023-04-19T03:31:07.296Z,6.43
2023-04-19T03:33:34.057Z,5.82
2023-04-19T03:36:01.821Z,5.50
2023-04-19T03:38:28.870Z,5.80
2023-04-19T03:40:57.582Z,5.53
2023-04-19T03:43:24.482Z,5.72
2023-04-19T03:45:51.875Z,5.75
2023-04-19T03:48:18.624Z,5.20
2023-04-19T03:50:46.382Z,5.35
2023-04-19T03:53:13.307Z,5.13
2023-04-19T03:55:40.195Z,5.28
2023-04-19T03:58:06.996Z,5.07
2023-04-19T04:00:33.718Z,5.43
2023-04-19T04:03:03.264Z,4.72
2023-04-19T04:05:30.428Z,5.03
2023-04-19T04:07:57.739Z,4.95
2023-04-19T04:10:24.506Z,4.93
2023-04-19T04:12:54.349Z,5.10
2023-04-19T04:15:21.059Z,5.15
2023-04-19T04:17:48.064Z,4.82
2023-04-19T04:20:16.936Z,5.15
2023-04-19T04:22:46.067Z,4.78
2023-04-19T04:25:21.195Z,5.03
2023-04-19T04:27:52.481Z,4.82
2023-04-19T04:30:19.306Z,4.90
2023-04-19T04:32:47.730Z,5.03
2023-04-19T04:35:14.588Z,5.10
2023-04-19T04:37:41.346Z,4.80
2023-04-19T04:40:08.985Z,5.22
2023-04-19T04:42:37.634Z,5.53
2023-04-19T04:45:05.608Z,5.68
2023-04-19T04:47:33.650Z,4.28
2023-04-19T04:50:02.344Z,4.90
2023-04-19T04:52:30.065Z,4.67
2023-04-19T04:54:56.878Z,4.93
2023-04-19T04:57:23.685Z,4.87
2023-04-19T04:59:50.560Z,5.20
2023-04-19T05:02:17.439Z,5.00
2023-04-19T05:04:44.293Z,4.50
2023-04-19T05:07:11.059Z,5.23
2023-04-19T05:09:37.781Z,5.23
2023-04-19T05:12:05.177Z,4.30
2023-04-19T05:14:31.951Z,5.03
2023-04-19T05:16:58.704Z,4.78
2023-04-19T05:19:25.432Z,4.97
2023-04-19T05:21:52.155Z,5.43
2023-04-19T05:24:19.080Z,4.53
2023-04-19T05:26:45.909Z,4.97
2023-04-19T05:29:12.657Z,4.97
2023-04-19T05:31:39.502Z,4.20
2023-04-19T05:34:06.505Z,5.67
2023-04-19T05:36:33.310Z,4.90
2023-04-19T05:39:00.203Z,6.03
2023-04-19T05:41:27.078Z,4.90
2023-04-19T05:43:53.802Z,5.40
2023-04-19T05:46:20.585Z,5.73
2023-04-19T05:49:06.591Z,5.20
2023-04-19T05:51:33.377Z,4.97
2023-04-19T05:54:03.530Z,5.32
2023-04-19T05:56:30.420Z,5.37
2023-04-19T05:58:57.382Z,5.43
2023-04-19T06:01:24.547Z,5.17
2023-04-19T06:03:53.680Z,5.07
2023-04-19T06:06:23.634Z,5.83
2023-04-19T06:08:53.312Z,5.60
2023-04-19T06:11:26.893Z,5.23
2023-04-19T06:13:58.431Z,5.43
2023-04-19T06:16:25.274Z,4.83
2023-04-19T06:19:00.992Z,5.53
2023-04-19T06:21:31.652Z,5.40
2023-04-19T06:23:58.639Z,4.80
2023-04-19T06:26:25.449Z,5.70
2023-04-19T06:28:52.194Z,5.47
2023-04-19T06:31:19.041Z,5.37
2023-04-19T06:33:46.020Z,4.80
2023-04-19T06:36:13.009Z,5.53
2023-04-19T06:38:41.718Z,5.70
2023-04-19T06:41:09.173Z,5.63
2023-04-19T06:43:36.061Z,5.22
2023-04-19T06:46:07.015Z,5.28
2023-04-19T06:48:34.932Z,5.27
2023-04-19T06:51:01.821Z,5.20
2023-04-19T06:53:28.601Z,5.67
2023-04-19T06:56:01.269Z,4.90
2023-04-19T06:58:32.717Z,4.75
2023-04-19T07:01:01.487Z,3.97
2023-04-19T07:03:28.467Z,4.43
2023-04-19T07:05:56.515Z,4.50
2023-04-19T07:08:34.857Z,4.30
2023-04-19T07:11:09.463Z,3.30
2023-04-19T07:13:36.262Z,3.90
2023-04-19T07:16:05.766Z,3.13
2023-04-19T07:18:38.913Z,3.20
2023-04-19T07:21:05.780Z,2.55
2023-04-19T07:23:34.998Z,2.80
2023-04-19T07:26:09.644Z,2.50
2023-04-19T07:28:36.478Z,2.50
2023-04-19T07:31:03.259Z,2.55
2023-04-19T07:33:30.112Z,2.45
2023-04-19T07:35:56.978Z,2.10
2023-04-19T07:38:24.839Z,2.60
2023-04-19T07:40:52.274Z,2.40
2023-04-19T07:43:19.008Z,2.08
2023-04-19T07:45:46.471Z,2.90
2023-04-19T07:48:13.273Z,2.45
2023-04-19T07:50:40.146Z,1.75
2023-04-19T07:53:06.845Z,2.70
2023-04-19T07:55:33.777Z,2.47
2023-04-19T07:58:02.338Z,2.20
2023-04-19T08:00:30.145Z,2.05
2023-04-19T08:02:57.329Z,2.20
2023-04-19T08:05:24.495Z,2.03
2023-04-19T08:07:53.187Z,1.98
2023-04-19T08:10:22.364Z,2.15
2023-04-19T08:16:07.789Z,2.65
2023-04-19T08:18:12.041Z,1.75
2023-04-19T08:20:42.542Z,2.22
2023-04-19T08:23:22.369Z,1.80
2023-04-19T08:25:51.449Z,2.30
2023-04-19T08:28:19.185Z,2.78
2023-04-19T08:30:46.448Z,1.40
2023-04-19T08:33:13.197Z,1.67
2023-04-19T08:35:41.483Z,1.70
2023-04-19T08:38:09.960Z,1.45
2023-04-19T08:40:46.963Z,1.70
2023-04-19T08:43:14.474Z,1.33
2023-04-19T08:45:49.012Z,1.30
2023-04-19T08:48:18.070Z,1.30
2023-04-19T08:51:03.512Z,1.25
2023-04-19T08:53:34.104Z,1.70
2023-04-19T08:58:46.456Z,1.40
2023-04-19T09:01:33.852Z,1.30
2023-04-19T09:04:26.529Z,1.13
2023-04-19T09:06:55.680Z,1.23
2023-04-19T09:09:37.167Z,1.20
2023-04-19T09:12:18.356Z,1.10
2023-04-19T09:15:01.961Z,1.20
2023-04-19T09:17:31.569Z,1.08
2023-04-19T09:19:59.511Z,1.10
2023-04-19T09:22:27.120Z,1.48
2023-04-19T09:27:31.789Z,0.70
2023-04-19T09:30:32.446Z,0.80
2023-04-19T09:33:02.913Z,0.80
2023-04-19T09:35:48.110Z,0.70
2023-04-19T09:38:15.768Z,0.80
2023-04-19T09:40:43.567Z,1.00
2023-04-19T09:43:33.008Z,0.90
2023-04-19T09:45:57.085Z,0.73
2023-04-19T09:48:23.961Z,0.90
2023-04-19T09:51:01.786Z,0.70
2023-04-19T09:53:35.366Z,0.60
2023-04-19T09:56:04.175Z,0.93
2023-04-19T10:01:14.009Z,0.93
2023-04-19T10:03:45.449Z,0.88
2023-04-19T10:08:53.333Z,1.27
2023-04-19T10:11:27.298Z,1.20
2023-04-19T10:14:00.224Z,1.10
2023-04-19T10:16:27.587Z,1.35
2023-04-19T10:18:57.148Z,1.42
2023-04-19T10:21:28.686Z,1.15
2023-04-19T10:24:05.411Z,1.00
2023-04-19T10:27:12.220Z,1.27
2023-04-19T10:29:54.802Z,1.10
2023-04-19T10:32:22.401Z,1.10
2023-04-19T10:34:53.756Z,0.95
2023-04-19T10:37:26.197Z,1.20
2023-04-19T10:39:53.206Z,0.80
2023-04-19T10:42:20.104Z,1.17
2023-04-19T10:45:33.248Z,1.05
2023-04-19T10:48:00.308Z,0.98
2023-04-19T10:50:27.550Z,0.90
2023-04-19T10:52:54.441Z,0.80
2023-04-19T10:55:21.395Z,1.00
2023-04-19T10:58:07.207Z,1.33
2023-04-19T11:00:36.030Z,0.82
2023-04-19T11:03:46.705Z,0.80
2023-04-19T11:06:21.539Z,0.80
2023-04-19T11:08:48.347Z,0.90
2023-04-19T11:11:15.773Z,0.68
2023-04-19T11:13:43.528Z,1.00
2023-04-19T11:16:11.020Z,0.80
2023-04-19T11:18:37.772Z,1.25
2023-04-19T11:21:05.206Z,1.10
2023-04-19T11:23:31.980Z,1.10
2023-04-19T11:25:59.096Z,1.00
2023-04-19T11:28:25.848Z,0.93
2023-04-19T11:30:54.845Z,0.80
2023-04-19T11:33:24.940Z,1.33
2023-04-19T11:35:51.748Z,1.00
2023-04-19T11:38:18.503Z,1.42
2023-04-19T11:40:45.285Z,1.10
2023-04-19T11:43:12.147Z,1.20
2023-04-19T11:45:40.225Z,1.27
2023-04-19T11:48:17.438Z,0.95
2023-04-19T11:50:46.807Z,1.40
2023-04-19T11:53:23.904Z,1.20
2023-04-19T11:56:03.579Z,0.93
2023-04-19T11:58:44.533Z,1.00
2023-04-19T12:01:13.661Z,1.20
2023-04-19T12:03:52.849Z,1.20
2023-04-19T12:06:31.636Z,1.58
2023-04-19T12:08:58.911Z,1.15
2023-04-19T12:11:42.902Z,1.23
2023-04-19T12:14:12.606Z,1.23
2023-04-19T12:16:42.168Z,1.10
2023-04-19T12:19:20.640Z,1.30
2023-04-19T12:21:47.896Z,1.65
2023-04-19T12:24:17.908Z,1.25
2023-04-19T12:27:04.086Z,1.40
2023-04-19T12:29:31.419Z,1.20
2023-04-19T12:31:58.304Z,1.40
2023-04-19T12:34:34.397Z,1.10
2023-04-19T12:37:01.633Z,1.30
2023-04-19T12:39:28.898Z,1.23
2023-04-19T12:41:56.789Z,1.42
2023-04-19T12:44:23.782Z,1.50
2023-04-19T12:46:52.007Z,1.35
2023-04-19T12:49:21.793Z,1.40
2023-04-19T12:51:48.614Z,1.90
2023-04-19T12:54:16.104Z,1.33
2023-04-19T12:56:42.943Z,1.40
2023-04-19T12:59:09.870Z,1.63
2023-04-19T13:01:36.723Z,1.50
2023-04-19T13:04:03.776Z,2.10
2023-04-19T13:06:31.161Z,1.67
2023-04-19T13:09:01.044Z,1.65
2023-04-19T13:11:28.757Z,1.50
2023-04-19T13:13:55.599Z,1.40
2023-04-19T13:16:23.091Z,1.65
2023-04-19T13:18:52.269Z,1.60
2023-04-19T13:21:19.285Z,1.55
2023-04-19T13:23:46.057Z,1.98
2023-04-19T13:26:12.811Z,1.85
2023-04-19T13:28:42.306Z,1.77
2023-04-19T13:31:09.242Z,2.35
2023-04-19T13:33:36.549Z,1.70
2023-04-19T13:36:03.978Z,1.90
2023-04-19T13:38:30.831Z,1.50
2023-04-19T13:40:57.799Z,1.40
2023-04-19T13:43:24.514Z,1.98
2023-04-19T13:45:51.319Z,1.45
2023-04-19T13:48:18.038Z,1.60
2023-04-19T13:50:44.942Z,1.13
2023-04-19T13:53:12.022Z,1.38
2023-04-19T13:55:38.963Z,1.55
2023-04-19T13:58:05.928Z,1.67
2023-04-19T14:00:33.929Z,1.40
2023-04-19T14:03:01.077Z,1.45
2023-04-19T14:05:29.780Z,1.35
2023-04-19T14:07:56.814Z,1.75
2023-04-19T14:10:23.593Z,1.65
2023-04-19T14:12:52.645Z,1.20
2023-04-19T14:15:29.695Z,1.10
2023-04-19T14:17:56.562Z,1.30
2023-04-19T14:20:23.413Z,1.27
2023-04-19T14:22:50.347Z,1.10
2023-04-19T14:25:18.189Z,1.30
2023-04-19T14:27:49.152Z,1.20
2023-04-19T14:30:16.118Z,1.10
2023-04-19T14:32:43.075Z,1.25
2023-04-19T14:35:11.245Z,1.40
2023-04-19T14:37:46.437Z,1.40
2023-04-19T14:40:16.314Z,1.30
2023-04-19T14:42:43.127Z,1.20
2023-04-19T14:45:12.048Z,1.30
2023-04-19T14:47:38.893Z,1.25
2023-04-19T14:50:07.006Z,1.20
2023-04-19T14:52:34.555Z,1.23
2023-04-19T14:55:02.198Z,1.35
2023-04-19T14:57:31.134Z,1.23
2023-04-19T15:00:03.273Z,1.33
2023-04-19T15:02:38.850Z,2.58
2023-04-19T15:05:07.792Z,1.42
2023-04-19T15:07:34.803Z,1.90
2023-04-19T15:10:01.800Z,1.50
2023-04-19T15:12:30.728Z,1.73
2023-04-19T15:14:57.507Z,1.75
2023-04-19T15:17:24.290Z,1.63
2023-04-19T15:19:51.423Z,1.30
2023-04-19T15:22:21.026Z,1.60
2023-04-19T15:24:47.771Z,1.60
2023-04-19T15:27:14.550Z,1.70
2023-04-19T15:29:42.683Z,2.00
2023-04-19T15:32:09.567Z,1.90
2023-04-19T15:34:36.280Z,2.05
2023-04-19T15:37:05.847Z,2.10
2023-04-19T15:39:32.725Z,2.15
2023-04-19T15:41:59.533Z,2.05
2023-04-19T15:44:26.318Z,1.60
2023-04-19T15:46:53.149Z,2.08
2023-04-19T15:49:19.992Z,2.05
2023-04-19T15:51:46.792Z,1.67
2023-04-19T15:54:15.045Z,2.00
2023-04-19T15:56:41.867Z,2.40
2023-04-19T15:59:08.678Z,2.47
2023-04-19T16:01:36.080Z,2.65
2023-04-19T16:04:03.965Z,2.45
2023-04-19T16:06:32.304Z,2.30
2023-04-19T16:08:58.996Z,2.20
2023-04-19T16:11:25.875Z,2.22
2023-04-19T16:13:55.461Z,2.28
2023-04-19T16:16:22.391Z,2.00
2023-04-19T16:18:49.393Z,2.08
2023-04-19T16:21:16.358Z,2.38
2023-04-19T16:23:43.134Z,1.90
2023-04-19T16:26:09.864Z,2.22
2023-04-19T16:28:36.573Z,2.25
2023-04-19T16:31:03.369Z,2.33
2023-04-19T16:33:30.189Z,2.25
2023-04-19T16:35:57.036Z,1.90
2023-04-19T16:38:24.379Z,1.90
2023-04-19T16:40:51.324Z,2.10
2023-04-19T16:43:20.620Z,2.38
2023-04-19T16:45:48.301Z,2.03
2023-04-19T16:48:15.258Z,1.52
2023-04-19T16:50:42.068Z,1.63
2023-04-19T16:53:08.838Z,1.50
2023-04-19T16:55:36.814Z,1.80
2023-04-19T16:58:03.629Z,1.95
2023-04-19T17:00:30.510Z,1.90
2023-04-19T17:02:57.547Z,1.58
2023-04-19T17:05:24.484Z,2.20
2023-04-19T17:07:51.811Z,1.70
2023-04-19T17:10:19.586Z,2.45
2023-04-19T17:12:46.278Z,1.40
2023-04-19T17:15:12.999Z,1.75
2023-04-19T17:17:39.885Z,1.60
2023-04-19T17:20:07.949Z,1.80
2023-04-19T17:22:34.685Z,1.63
2023-04-19T17:25:02.326Z,2.05
2023-04-19T17:27:29.091Z,2.10
2023-04-19T17:29:55.997Z,1.83
2023-04-19T17:32:22.733Z,1.50
2023-04-19T17:34:49.526Z,1.40
2023-04-19T17:37:18.479Z,1.67
2023-04-19T17:39:45.295Z,2.10
2023-04-19T17:42:12.048Z,1.70
2023-04-19T17:44:38.815Z,1.90
2023-04-19T17:47:05.648Z,2.25
2023-04-19T17:49:32.441Z,1.60
2023-04-19T17:51:59.179Z,1.70
2023-04-19T17:54:25.923Z,1.85
2023-04-19T17:56:52.834Z,1.92
2023-04-19T17:59:19.853Z,1.83
2023-04-19T18:01:46.696Z,1.80
2023-04-19T18:04:17.858Z,1.50
2023-04-19T18:06:47.313Z,1.50
2023-04-19T18:09:14.770Z,1.40
2023-04-19T18:11:41.855Z,1.40
2023-04-19T18:14:08.780Z,2.33
2023-04-19T18:16:35.705Z,1.40
2023-04-19T18:19:02.728Z,1.23
2023-04-19T18:21:29.906Z,1.60
2023-04-19T18:23:56.670Z,1.48
2023-04-19T18:26:23.657Z,1.48
2023-04-19T18:28:50.657Z,1.67
2023-04-19T18:31:17.429Z,2.00
2023-04-19T18:33:44.252Z,2.30
2023-04-19T18:36:11.264Z,1.80
2023-04-19T18:38:38.180Z,1.70
2023-04-19T18:41:05.329Z,1.90
2023-04-19T18:43:34.301Z,1.90
2023-04-19T18:46:01.412Z,1.88
2023-04-19T18:48:29.632Z,2.10
2023-04-19T18:51:09.250Z,2.20
2023-04-19T18:53:37.533Z,1.88
2023-04-19T18:56:04.876Z,1.73
2023-04-19T18:58:32.210Z,2.03
2023-04-19T19:00:59.199Z,1.67
2023-04-19T19:05:58.596Z,1.70
2023-04-19T19:08:28.798Z,2.30
2023-04-19T19:13:25.540Z,2.13
2023-04-19T19:15:52.293Z,1.80
2023-04-19T19:18:19.154Z,2.25
2023-04-19T19:20:47.044Z,1.85
2023-04-19T19:23:13.847Z,1.80
2023-04-19T19:25:45.836Z,1.90
2023-04-19T19:28:12.700Z,1.65
2023-04-19T19:30:49.993Z,2.03
2023-04-19T19:33:17.897Z,2.15
2023-04-19T19:35:45.613Z,1.70
2023-04-19T19:38:12.349Z,1.88
2023-04-19T19:40:59.389Z,1.90
2023-04-19T19:43:25.993Z,1.88
2023-04-19T19:45:52.755Z,1.98
2023-04-19T19:48:19.488Z,1.98
2023-04-19T19:51:13.385Z,1.80
2023-04-19T19:53:33.165Z,1.65
2023-04-19T19:56:00.280Z,1.80
2023-04-19T19:58:48.322Z,1.75
2023-04-19T20:01:13.793Z,2.20
2023-04-19T20:03:40.762Z,1.67
2023-04-19T20:08:44.245Z,1.70
2023-04-19T20:11:11.591Z,1.67
2023-04-19T20:13:39.359Z,1.92
2023-04-19T20:16:06.654Z,1.60
2023-04-19T20:18:34.867Z,2.17
2023-04-19T20:21:01.617Z,1.77
2023-04-19T20:23:28.366Z,2.20
2023-04-19T20:25:55.178Z,1.55
2023-04-19T20:28:21.869Z,2.20
2023-04-19T20:30:48.618Z,1.70
2023-04-19T20:33:15.949Z,1.88
2023-04-19T20:35:43.910Z,2.15
2023-04-19T20:38:10.675Z,1.80
2023-04-19T20:40:37.362Z,2.00
2023-04-19T20:43:04.104Z,2.42
2023-04-19T20:45:31.702Z,2.42
2023-04-19T20:47:59.911Z,1.90
2023-04-19T20:50:29.529Z,1.75
2023-04-19T20:52:56.648Z,1.63
2023-04-19T20:55:23.757Z,2.20
2023-04-19T20:57:50.439Z,1.98
2023-04-19T21:00:17.550Z,2.15
2023-04-19T21:02:44.878Z,1.80
2023-04-19T21:05:12.240Z,1.88
2023-04-19T21:07:38.995Z,1.65
2023-04-19T21:10:08.162Z,1.55
2023-04-19T21:12:35.067Z,1.42
2023-04-19T21:15:04.732Z,1.35
2023-04-19T21:17:31.617Z,1.83
2023-04-19T21:19:58.426Z,2.10
2023-04-19T21:22:25.349Z,1.77
2023-04-19T21:24:52.129Z,1.98
2023-04-19T21:27:18.923Z,1.60
2023-04-19T21:29:45.717Z,1.83
2023-04-19T21:32:12.463Z,1.48
2023-04-19T21:34:40.260Z,1.80
2023-04-19T21:37:07.050Z,2.38
2023-04-19T21:39:33.872Z,2.03
2023-04-19T21:42:01.449Z,1.90
2023-04-19T21:44:28.215Z,1.73
2023-04-19T21:46:55.078Z,1.77
2023-04-19T21:49:21.921Z,1.80
2023-04-19T21:51:48.741Z,2.00
2023-04-19T21:54:26.674Z,1.60
2023-04-19T21:56:58.339Z,1.50
2023-04-19T21:59:25.428Z,1.80
2023-04-19T22:01:53.752Z,1.90
2023-04-19T22:04:20.920Z,1.80
2023-04-19T22:06:47.676Z,1.80
2023-04-19T22:09:15.489Z,1.40
2023-04-19T22:11:43.258Z,1.90
2023-04-19T22:14:09.979Z,1.45
2023-04-19T22:16:36.734Z,1.92
2023-04-19T22:19:03.596Z,1.40
2023-04-19T22:21:31.996Z,1.40
2023-04-19T22:23:58.717Z,1.20
2023-04-19T22:26:26.162Z,1.63
2023-04-19T22:28:54.045Z,1.65
2023-04-19T22:31:20.817Z,1.38
2023-04-19T22:33:47.802Z,1.58
2023-04-19T22:36:14.593Z,1.83
2023-04-19T22:38:41.429Z,1.50
2023-04-19T22:41:08.167Z,1.90
2023-04-19T22:43:34.948Z,1.92
2023-04-19T22:46:01.819Z,1.85
2023-04-19T22:48:30.057Z,1.55
2023-04-19T22:50:57.021Z,1.80
2023-04-19T22:53:23.857Z,1.43
2023-04-19T22:55:54.005Z,1.60
2023-04-19T22:58:20.885Z,1.73
2023-04-19T23:00:47.614Z,1.50
2023-04-19T23:03:14.382Z,1.50
2023-04-19T23:05:42.467Z,1.70
2023-04-19T23:08:09.375Z,1.33
2023-04-19T23:10:38.856Z,1.63
2023-04-19T23:13:06.756Z,1.60
2023-04-19T23:15:34.324Z,1.50
2023-04-19T23:18:03.700Z,1.40
2023-04-19T23:20:31.565Z,1.57
2023-04-19T23:22:59.508Z,1.33
2023-04-19T23:25:26.437Z,1.37
2023-04-19T23:27:53.243Z,2.00
2023-04-19T23:30:20.647Z,1.70
2023-04-19T23:32:47.442Z,2.00
2023-04-19T23:35:15.312Z,1.50
2023-04-19T23:37:42.096Z,1.63
2023-04-19T23:40:09.929Z,1.40
2023-04-19T23:42:40.810Z,1.50
2023-04-19T23:45:08.909Z,1.67
2023-04-19T23:47:35.725Z,1.60
2023-04-19T23:50:02.550Z,1.40
2023-04-19T23:52:29.259Z,1.43
2023-04-19T23:54:57.026Z,1.70
2023-04-19T23:57:23.751Z,1.40
2023-04-19T23:59:50.514Z,1.70
